createdAt,value
2022-08-17T00:01:03.646Z,0.00
2022-08-17T00:06:04.257Z,0.00
2022-08-17T00:11:05.274Z,0.00
2022-08-17T00:16:05.657Z,0.00
2022-08-17T00:21:10.721Z,0.00
2022-08-17T00:26:07.213Z,0.00
2022-08-17T00:31:08.026Z,0.00
2022-08-17T00:36:08.823Z,0.00
2022-08-17T00:41:09.550Z,0.00
2022-08-17T00:46:10.286Z,0.00
2022-08-17T00:51:11.108Z,0.00
2022-08-17T00:56:12.002Z,0.00
2022-08-17T01:01:12.929Z,0.00
2022-08-17T01:06:14.367Z,0.00
2022-08-17T01:11:14.198Z,0.00
2022-08-17T01:16:14.884Z,0.00
2022-08-17T01:21:15.635Z,0.00
2022-08-17T01:26:16.383Z,0.00
2022-08-17T01:31:17.093Z,0.00
2022-08-17T01:36:18.095Z,0.00
2022-08-17T01:41:18.934Z,0.00
2022-08-17T01:46:19.778Z,0.00
2022-08-17T01:51:20.625Z,0.00
2022-08-17T01:56:21.495Z,0.00
2022-08-17T02:01:22.318Z,0.00
2022-08-17T02:06:27.679Z,0.00
2022-08-17T02:11:24.849Z,0.00
2022-08-17T02:16:24.756Z,0.00
2022-08-17T02:21:25.686Z,0.00
2022-08-17T02:26:26.170Z,0.00
2022-08-17T02:31:26.521Z,0.00
2022-08-17T02:36:27.590Z,0.00
2022-08-17T02:41:27.817Z,0.00
2022-08-17T02:46:28.581Z,0.00
2022-08-17T02:51:29.352Z,0.00
2022-08-17T02:56:30.049Z,0.00
2022-08-17T03:01:30.892Z,0.00
2022-08-17T03:06:31.590Z,0.00
2022-08-17T03:11:32.309Z,0.00
2022-08-17T03:16:33.091Z,1.00
2022-08-17T03:21:40.761Z,2.00
2022-08-17T03:26:34.645Z,6.00
2022-08-17T03:31:37.039Z,2.00
2022-08-17T03:36:36.027Z,5.00
2022-08-17T03:41:36.437Z,17.00
2022-08-17T03:46:37.146Z,37.00
2022-08-17T03:51:37.749Z,65.00
2022-08-17T03:56:38.649Z,98.00
2022-08-17T04:01:39.504Z,148.00
2022-08-17T04:06:40.136Z,207.00
2022-08-17T04:11:41.010Z,288.00
2022-08-17T04:16:41.785Z,388.00
2022-08-17T04:21:42.688Z,428.00
2022-08-17T04:26:53.157Z,542.00
2022-08-17T04:31:45.004Z,716.00
2022-08-17T04:36:50.082Z,825.00
2022-08-17T04:41:46.260Z,964.00
2022-08-17T04:46:46.042Z,1068.00
2022-08-17T04:51:54.658Z,1158.00
2022-08-17T04:56:48.188Z,1411.00
2022-08-17T05:01:49.161Z,1496.00
2022-08-17T05:06:48.600Z,474.00
2022-08-17T05:11:49.277Z,1872.00
2022-08-17T05:16:50.134Z,2572.00
2022-08-17T05:21:50.961Z,2495.00
2022-08-17T05:26:51.333Z,2902.00
2022-08-17T05:31:52.144Z,1536.00
2022-08-17T05:36:53.051Z,2438.00
2022-08-17T05:41:53.708Z,1594.00
2022-08-17T05:46:54.576Z,1997.00
2022-08-17T05:51:55.365Z,2248.00
2022-08-17T05:56:56.032Z,2011.00
2022-08-17T06:01:56.822Z,1981.00
2022-08-17T06:06:57.440Z,2035.00
2022-08-17T06:11:58.801Z,2258.00
2022-08-17T06:16:59.088Z,2222.00
2022-08-17T06:21:59.703Z,2289.00
2022-08-17T06:27:00.388Z,2335.00
2022-08-17T06:32:01.159Z,2325.00
2022-08-17T06:37:01.769Z,2335.00
2022-08-17T06:42:02.448Z,2434.00
2022-08-17T06:47:03.253Z,2465.00
2022-08-17T06:52:03.879Z,2295.00
2022-08-17T06:57:04.545Z,2871.00
2022-08-17T07:02:05.256Z,2938.00
2022-08-17T07:07:05.945Z,3277.00
2022-08-17T07:12:06.622Z,3105.00
2022-08-17T07:17:07.353Z,3333.00
2022-08-17T07:22:08.005Z,3391.00
2022-08-17T07:27:08.687Z,3398.00
2022-08-17T07:32:09.404Z,2841.00
2022-08-17T07:37:10.075Z,3522.00
2022-08-17T07:42:10.753Z,3830.00
2022-08-17T07:47:11.470Z,3702.00
2022-08-17T07:52:47.724Z,3620.00
2022-08-17T07:57:13.692Z,4219.00
2022-08-17T08:02:13.455Z,4045.00
2022-08-17T08:07:14.063Z,3992.00
2022-08-17T08:12:16.002Z,4093.00
2022-08-17T08:17:15.474Z,4399.00
2022-08-17T08:22:16.295Z,4132.00
2022-08-17T08:27:16.952Z,4346.00
2022-08-17T08:32:17.669Z,4582.00
2022-08-17T08:37:27.458Z,4054.00
2022-08-17T08:42:19.882Z,4872.00
2022-08-17T08:47:19.656Z,4656.00
2022-08-17T08:52:20.317Z,4429.00
2022-08-17T08:57:26.716Z,4793.00
2022-08-17T09:02:22.805Z,4560.00
2022-08-17T09:07:22.515Z,4815.00
2022-08-17T09:12:23.178Z,4966.00
2022-08-17T09:17:23.916Z,4839.00
2022-08-17T09:22:31.701Z,5022.00
2022-08-17T09:27:25.325Z,3895.00
2022-08-17T09:32:26.045Z,5322.00
2022-08-17T09:37:26.726Z,5597.00
2022-08-17T09:42:27.422Z,4829.00
2022-08-17T09:47:28.113Z,5846.00
2022-08-17T09:52:28.773Z,5524.00
2022-08-17T09:57:31.034Z,5780.00
2022-08-17T10:02:30.084Z,6132.00
2022-08-17T10:07:30.815Z,6497.00
2022-08-17T10:12:31.416Z,6977.00
2022-08-17T10:17:32.127Z,7379.00
2022-08-17T10:22:37.765Z,7371.00
2022-08-17T10:27:34.312Z,7310.00
2022-08-17T10:32:34.021Z,6547.00
2022-08-17T10:37:34.772Z,4822.00
2022-08-17T10:42:35.518Z,4380.00
2022-08-17T10:47:54.685Z,7511.00
2022-08-17T10:52:37.889Z,6108.00
2022-08-17T10:57:37.514Z,3858.00
2022-08-17T11:02:38.208Z,1241.00
2022-08-17T11:07:38.891Z,7959.00
2022-08-17T11:12:39.571Z,8267.00
2022-08-17T11:17:40.050Z,8268.00
2022-08-17T11:22:40.728Z,7752.00
2022-08-17T11:27:41.408Z,5925.00
2022-08-17T11:32:47.477Z,5313.00
2022-08-17T11:37:43.627Z,7355.00
2022-08-17T11:42:43.362Z,5937.00
2022-08-17T11:47:56.952Z,4442.00
2022-08-17T11:52:46.742Z,5264.00
2022-08-17T11:57:45.247Z,3410.00
2022-08-17T12:02:48.462Z,8510.00
2022-08-17T12:07:46.410Z,7894.00
2022-08-17T12:12:47.083Z,6054.00
2022-08-17T12:17:47.735Z,2130.00
2022-08-17T12:22:48.606Z,7926.00
2022-08-17T12:28:05.273Z,8912.00
2022-08-17T12:32:50.831Z,7408.00
2022-08-17T12:37:50.762Z,4844.00
2022-08-17T12:42:51.057Z,6195.00
2022-08-17T12:47:52.029Z,4664.00
2022-08-17T12:52:52.358Z,6405.00
2022-08-17T12:57:53.936Z,3085.00
2022-08-17T13:02:53.606Z,7232.00
2022-08-17T13:07:54.287Z,3894.00
2022-08-17T13:12:54.983Z,4394.00
2022-08-17T13:17:55.709Z,3656.00
2022-08-17T13:22:56.386Z,3276.00
2022-08-17T13:27:57.084Z,3467.00
2022-08-17T13:32:57.772Z,4276.00
2022-08-17T13:37:58.410Z,3645.00
2022-08-17T13:42:59.122Z,4139.00
2022-08-17T13:47:59.806Z,4930.00
2022-08-17T13:53:00.472Z,4377.00
2022-08-17T13:58:04.147Z,5475.00
2022-08-17T14:03:02.752Z,4892.00
2022-08-17T14:08:02.426Z,4369.00
2022-08-17T14:13:03.207Z,3713.00
2022-08-17T14:18:03.882Z,4085.00
2022-08-17T14:23:04.534Z,5425.00
2022-08-17T14:28:05.308Z,4076.00
2022-08-17T14:33:05.971Z,3882.00
2022-08-17T14:38:06.583Z,4237.00
2022-08-17T14:43:07.358Z,5688.00
2022-08-17T14:48:08.041Z,5345.00
2022-08-17T14:53:08.721Z,4435.00
2022-08-17T14:58:10.446Z,4014.00
2022-08-17T15:03:10.086Z,2507.00
2022-08-17T15:08:10.794Z,4421.00
2022-08-17T15:13:11.476Z,4164.00
2022-08-17T15:18:12.123Z,3685.00
2022-08-17T15:23:12.785Z,3442.00
2022-08-17T15:28:20.480Z,3314.00
2022-08-17T15:33:14.118Z,2532.00
2022-08-17T15:38:14.854Z,3474.00
2022-08-17T15:43:15.525Z,2992.00
2022-08-17T15:48:16.192Z,3004.00
2022-08-17T15:53:16.903Z,2885.00
2022-08-17T15:58:17.590Z,2846.00
2022-08-17T16:04:01.263Z,3332.00
2022-08-17T16:08:21.247Z,2813.00
2022-08-17T16:13:19.662Z,2519.00
2022-08-17T16:18:20.334Z,2734.00
2022-08-17T16:23:21.012Z,2202.00
2022-08-17T16:28:21.669Z,1604.00
2022-08-17T16:33:22.358Z,2293.00
2022-08-17T16:38:23.013Z,2229.00
2022-08-17T16:43:23.706Z,2037.00
2022-08-17T16:48:24.379Z,1634.00
2022-08-17T16:53:25.092Z,1520.00
2022-08-17T16:58:25.779Z,1294.00
2022-08-17T17:03:26.450Z,1279.00
2022-08-17T17:08:27.146Z,1131.00
2022-08-17T17:13:27.887Z,1002.00
2022-08-17T17:18:28.545Z,1031.00
2022-08-17T17:23:29.232Z,976.00
2022-08-17T17:28:29.900Z,1245.00
2022-08-17T17:33:34.070Z,1165.00
2022-08-17T17:38:31.447Z,985.00
2022-08-17T17:43:40.541Z,819.00
2022-08-17T17:48:33.667Z,666.00
2022-08-17T17:53:34.810Z,785.00
2022-08-17T17:58:34.924Z,734.00
2022-08-17T18:03:34.637Z,580.00
2022-08-17T18:08:35.257Z,429.00
2022-08-17T18:13:36.000Z,337.00
2022-08-17T18:18:36.562Z,274.00
2022-08-17T18:23:37.417Z,217.00
2022-08-17T18:28:38.064Z,131.00
2022-08-17T18:33:38.733Z,61.00
2022-08-17T18:38:39.419Z,33.00
2022-08-17T18:43:43.966Z,18.00
2022-08-17T18:48:41.643Z,10.00
2022-08-17T18:53:42.315Z,4.00
2022-08-17T18:58:42.027Z,2.00
2022-08-17T19:03:42.695Z,1.00
2022-08-17T19:08:43.430Z,0.00
2022-08-17T19:13:44.202Z,0.00
2022-08-17T19:18:44.959Z,0.00
2022-08-17T19:23:53.885Z,0.00
2022-08-17T19:28:48.582Z,0.00
2022-08-17T19:33:48.030Z,0.00
2022-08-17T19:38:47.339Z,0.00
2022-08-17T19:43:48.171Z,0.00
2022-08-17T19:48:49.943Z,0.00
2022-08-17T19:54:04.854Z,0.00
2022-08-17T19:58:51.431Z,0.00
2022-08-17T20:03:50.754Z,0.00
2022-08-17T20:08:51.480Z,0.00
2022-08-17T20:13:52.196Z,0.00
2022-08-17T20:18:52.934Z,0.00
2022-08-17T20:23:53.710Z,0.00
2022-08-17T20:28:54.400Z,0.00
2022-08-17T20:33:55.121Z,0.00
2022-08-17T20:38:55.883Z,0.00
2022-08-17T20:43:56.652Z,0.00
2022-08-17T20:48:57.377Z,0.00
2022-08-17T20:53:58.138Z,0.00
2022-08-17T20:58:58.869Z,0.00
2022-08-17T21:03:59.609Z,0.00
2022-08-17T21:09:00.344Z,0.00
2022-08-17T21:14:01.079Z,0.00
2022-08-17T21:19:01.797Z,0.00
2022-08-17T21:24:02.543Z,0.00
2022-08-17T21:29:30.994Z,0.00
2022-08-17T21:34:03.829Z,0.00
2022-08-17T21:39:04.638Z,0.00
2022-08-17T21:44:05.362Z,0.00
2022-08-17T21:49:13.306Z,0.00
2022-08-17T21:54:07.713Z,0.00
2022-08-17T21:59:07.628Z,0.00
2022-08-17T22:04:08.340Z,0.00
2022-08-17T22:09:09.136Z,0.00
2022-08-17T22:14:09.869Z,0.00
2022-08-17T22:19:10.625Z,0.00
2022-08-17T22:24:11.371Z,0.00
2022-08-17T22:29:12.091Z,0.00
2022-08-17T22:34:12.839Z,0.00
2022-08-17T22:39:13.585Z,0.00
2022-08-17T22:44:14.347Z,0.00
2022-08-17T22:49:15.135Z,0.00
2022-08-17T22:54:15.837Z,0.00
2022-08-17T22:59:16.618Z,0.00
2022-08-17T23:04:17.339Z,0.00
2022-08-17T23:09:18.129Z,0.00
2022-08-17T23:14:18.851Z,0.00
2022-08-17T23:19:19.597Z,0.00
2022-08-17T23:24:20.363Z,0.00
2022-08-17T23:29:21.106Z,0.00
2022-08-17T23:34:21.807Z,0.00
2022-08-17T23:39:27.818Z,0.00
2022-08-17T23:44:24.232Z,0.00
2022-08-17T23:49:23.955Z,0.00
2022-08-17T23:54:24.732Z,0.00
2022-08-17T23:59:25.470Z,0.00
